Time;durP1;ratioP1;P1;durP2;ratioP2;P2;SDS_P1;SDS_P2;PMS_P1;PMS_P2;Temp;Humidity;BMP_temperature;BMP_pressure;BME280_temperature;BME280_humidity;BME280_pressure;Samples;Min_cycle;Max_cycle;Signal;HPM_P1;HPM_P2
2022/04/29 00:00:18;;;;;;;66.85;7.35;;;;;;;9.38;100.00;99028.25;4980994;28;20029;-57
2022/04/29 00:02:45;;;;;;;64.95;8.50;;;;;;;8.28;100.00;99037.06;4987507;28;20023;-55
2022/04/29 00:05:11;;;;;;;81.80;8.73;;;;;;;8.49;100.00;99035.91;4985653;28;20029;-56
2022/04/29 00:07:38;;;;;;;67.40;8.02;;;;;;;8.40;100.00;99036.03;4987515;28;20042;-56
2022/04/29 00:10:08;;;;;;;80.13;8.52;;;;;;;8.70;100.00;99033.84;4985384;28;20535;-56
2022/04/29 00:12:34;;;;;;;73.32;8.13;;;;;;;8.15;100.00;99035.53;4986070;28;20049;-56
2022/04/29 00:14:59;;;;;;;66.00;7.82;;;;;;;8.11;100.00;99028.66;4988444;28;20026;-55
2022/04/29 00:17:25;;;;;;;90.35;9.65;;;;;;;7.95;100.00;99037.56;4986321;28;20496;-56
2022/04/29 00:19:50;;;;;;;68.43;8.10;;;;;;;8.03;100.00;99040.88;4985149;28;20030;-55
2022/04/29 00:22:16;;;;;;;75.47;8.52;;;;;;;8.44;100.00;99026.47;4982331;28;20030;-56
2022/04/29 00:24:41;;;;;;;88.00;9.55;;;;;;;8.43;100.00;99041.19;4984576;28;20030;-56
2022/04/29 00:27:07;;;;;;;74.63;8.88;;;;;;;8.43;100.00;99037.75;4980540;28;20104;-56
2022/04/29 00:29:32;;;;;;;81.20;8.80;;;;;;;8.64;100.00;99029.59;4979696;28;20046;-56
2022/04/29 00:31:57;;;;;;;74.85;8.32;;;;;;;8.50;100.00;99031.56;4981746;28;20044;-57
2022/04/29 00:34:23;;;;;;;89.75;8.80;;;;;;;8.59;100.00;99021.00;4982674;28;20838;-57
2022/04/29 00:36:48;;;;;;;66.63;8.07;;;;;;;8.50;100.00;99023.75;4984620;28;20069;-56
2022/04/29 00:39:14;;;;;;;82.05;8.43;;;;;;;8.43;100.00;99019.53;4984786;28;20064;-57
2022/04/29 00:41:39;;;;;;;93.78;9.38;;;;;;;8.08;100.00;99015.69;4984727;28;20034;-57
2022/04/29 00:44:08;;;;;;;74.75;8.38;;;;;;;8.49;100.00;99015.09;4984737;28;20042;-57
2022/04/29 00:46:38;;;;;;;76.97;8.65;;;;;;;8.16;100.00;99008.66;4984149;28;20045;-57
2022/04/29 00:49:05;;;;;;;78.30;8.68;;;;;;;8.50;100.00;99018.56;4982892;28;20121;-57
2022/04/29 00:51:31;;;;;;;66.55;7.90;;;;;;;8.46;100.00;99016.91;4986140;28;20066;-56
2022/04/29 00:53:57;;;;;;;78.00;7.97;;;;;;;8.63;100.00;99004.47;4983657;28;20093;-57
2022/04/29 00:56:25;;;;;;;82.65;8.60;;;;;;;8.29;100.00;99012.78;4984001;28;20144;-57
2022/04/29 00:59:07;;;;;;;84.93;8.73;;;;;;;8.55;100.00;99013.28;4983657;28;20725;-56
2022/04/29 01:01:34;;;;;;;89.80;9.13;;;;;;;7.96;100.00;99013.28;4985301;28;20042;-57
2022/04/29 01:04:01;;;;;;;77.45;8.88;;;;;;;7.85;100.00;99016.91;4984056;28;20034;-57
2022/04/29 01:06:27;;;;;;;78.88;8.93;;;;;;;7.57;100.00;99006.00;4998076;28;20049;-57
2022/04/29 01:08:52;;;;;;;105.28;10.57;;;;;;;7.50;100.00;98997.44;4982423;28;20025;-58
2022/04/29 01:11:26;;;;;;;72.68;8.82;;;;;;;7.48;100.00;98996.59;4984337;28;20053;-57
2022/04/29 01:13:53;;;;;;;106.35;10.02;;;;;;;7.93;100.00;98992.56;4981553;28;20100;-54
2022/04/29 01:16:19;;;;;;;102.60;10.38;;;;;;;7.58;100.00;98994.75;4982364;28;20070;-54
2022/04/29 01:18:50;;;;;;;77.30;8.52;;;;;;;8.20;100.00;98999.94;4981078;28;20045;-54
2022/04/29 01:21:16;;;;;;;84.23;9.10;;;;;;;7.79;100.00;98985.78;4985474;28;20485;-54
2022/04/29 01:23:44;;;;;;;88.32;9.70;;;;;;;7.44;100.00;98989.72;4983498;28;20049;-54
2022/04/29 01:26:14;;;;;;;71.10;8.10;;;;;;;7.81;100.00;98985.78;4985192;28;20049;-54
2022/04/29 01:28:42;;;;;;;92.95;8.50;;;;;;;8.22;100.00;98990.38;4983293;28;20113;-56
2022/04/29 01:31:11;;;;;;;87.05;9.23;;;;;;;8.00;100.00;98983.78;4983176;28;20038;-55
2022/04/29 01:33:38;;;;;;;86.22;9.38;;;;;;;7.47;100.00;98979.31;4998983;28;20030;-56
2022/04/29 01:36:04;;;;;;;78.28;8.38;;;;;;;7.71;100.00;98977.25;4980323;28;20039;-57
2022/04/29 01:38:29;;;;;;;79.05;9.15;;;;;;;7.24;100.00;98976.13;4983833;28;20037;-56
2022/04/29 01:40:54;;;;;;;74.03;8.50;;;;;;;8.16;100.00;98979.19;4983610;28;20031;-56
2022/04/29 01:43:20;;;;;;;75.53;9.23;;;;;;;7.49;100.00;98969.75;4981142;28;20461;-56
2022/04/29 01:45:45;;;;;;;66.05;7.85;;;;;;;7.62;100.00;98972.19;4981064;28;20045;-55
2022/04/29 01:48:11;;;;;;;69.00;7.88;;;;;;;7.93;100.00;98971.78;4984125;28;20415;-55
2022/04/29 01:50:36;;;;;;;77.78;8.25;;;;;;;8.15;100.00;98978.34;4982536;28;20046;-55
2022/04/29 01:53:01;;;;;;;68.60;7.43;;;;;;;8.29;100.00;98976.41;4983338;28;20058;-59
2022/04/29 01:55:26;;;;;;;90.90;8.82;;;;;;;7.97;100.00;98963.03;4982244;28;20154;-55
2022/04/29 01:57:52;;;;;;;76.97;8.32;;;;;;;7.57;100.00;98968.78;4985245;28;20021;-55
2022/04/29 02:00:18;;;;;;;65.35;7.55;;;;;;;7.87;100.00;98965.78;4984728;28;20023;-55
2022/04/29 02:02:44;;;;;;;67.30;7.60;;;;;;;7.96;100.00;98961.31;4983276;28;20443;-56
2022/04/29 02:05:11;;;;;;;71.63;7.95;;;;;;;7.84;100.00;98964.97;4982622;28;20140;-55
2022/04/29 02:07:36;;;;;;;95.18;9.30;;;;;;;8.01;100.00;98954.31;4982764;28;20026;-55
2022/04/29 02:10:02;;;;;;;87.57;8.75;;;;;;;7.73;100.00;98959.91;4982100;28;20028;-55
2022/04/29 02:12:28;;;;;;;86.30;9.52;;;;;;;6.74;100.00;98953.31;4982654;28;20039;-55
2022/04/29 02:14:53;;;;;;;91.07;10.13;;;;;;;6.75;100.00;98952.47;4983444;28;20031;-58
2022/04/29 02:17:18;;;;;;;74.75;7.60;;;;;;;7.95;100.00;98960.47;4981498;28;20074;-55
2022/04/29 02:19:43;;;;;;;76.90;8.35;;;;;;;7.60;100.00;98953.19;4984624;28;20033;-55
2022/04/29 02:22:09;;;;;;;80.45;8.65;;;;;;;6.73;100.00;98962.00;4982950;28;20584;-55
2022/04/29 02:24:35;;;;;;;70.28;8.25;;;;;;;6.84;100.00;98959.28;4981922;28;20722;-54
2022/04/29 02:27:02;;;;;;;68.25;8.63;;;;;;;7.01;100.00;98950.47;4981091;28;20035;-56
2022/04/29 02:29:27;;;;;;;75.75;8.32;;;;;;;7.03;100.00;98946.13;4982862;28;20151;-55
2022/04/29 02:31:53;;;;;;;92.07;8.95;;;;;;;7.43;100.00;98951.66;4983724;28;20047;-54
2022/04/29 02:34:19;;;;;;;75.63;8.18;;;;;;;7.19;100.00;98952.84;4984102;28;20114;-55
2022/04/29 02:36:45;;;;;;;87.10;9.13;;;;;;;7.03;100.00;98956.50;4981420;28;20135;-55
2022/04/29 02:39:11;;;;;;;79.53;8.23;;;;;;;6.92;100.00;98960.06;4984333;28;20080;-56
2022/04/29 02:41:38;;;;;;;73.53;8.00;;;;;;;7.36;100.00;98965.59;4982805;28;20430;-56
2022/04/29 02:44:04;;;;;;;71.93;8.00;;;;;;;7.52;100.00;98961.09;4982001;28;20109;-55
2022/04/29 02:46:29;;;;;;;76.90;9.13;;;;;;;7.32;100.00;98954.41;4982498;28;20129;-54
2022/04/29 02:48:55;;;;;;;88.97;9.38;;;;;;;6.59;100.00;98947.44;4982157;28;20026;-55
2022/04/29 02:51:20;;;;;;;68.32;7.72;;;;;;;7.13;100.00;98948.59;4981480;28;20042;-55
2022/04/29 02:53:46;;;;;;;75.65;9.00;;;;;;;6.72;100.00;98946.44;4982851;28;20761;-56
2022/04/29 02:56:11;;;;;;;83.72;10.02;;;;;;;6.66;100.00;98946.50;4981984;28;21042;-56
2022/04/29 02:58:36;;;;;;;69.95;8.15;;;;;;;6.85;100.00;98941.97;4982387;28;20232;-56
2022/04/29 03:01:02;;;;;;;78.10;9.43;;;;;;;6.97;100.00;98943.59;4979884;28;20034;-56
2022/04/29 03:03:28;;;;;;;79.05;9.23;;;;;;;6.72;100.00;98942.09;4979146;28;20030;-55
2022/04/29 03:05:53;;;;;;;71.38;9.35;;;;;;;6.65;100.00;98945.63;4981865;28;20042;-55
2022/04/29 03:08:19;;;;;;;76.65;8.82;;;;;;;6.43;100.00;98944.13;4983741;28;20052;-56
2022/04/29 03:10:46;;;;;;;80.10;8.77;;;;;;;6.13;100.00;98935.75;4983747;28;20544;-56
2022/04/29 03:13:12;;;;;;;89.72;9.80;;;;;;;6.08;100.00;98945.28;4980054;28;20042;-57
2022/04/29 03:15:37;;;;;;;74.50;9.00;;;;;;;6.34;100.00;98940.75;4980862;28;20038;-55
2022/04/29 03:18:18;;;;;;;69.20;8.98;;;;;;;6.68;100.00;98932.66;4983665;28;20101;-56
2022/04/29 03:20:44;;;;;;;81.85;8.45;;;;;;;6.80;100.00;98938.56;4981166;28;20508;-55
2022/04/29 03:23:10;;;;;;;60.67;7.47;;;;;;;7.30;100.00;98940.59;4981787;28;20049;-55
2022/04/29 03:25:36;;;;;;;66.85;7.63;;;;;;;7.29;100.00;98935.41;4981026;28;20027;-55
2022/04/29 03:28:05;;;;;;;74.22;9.95;;;;;;;5.97;100.00;98930.72;4982495;28;20022;-55
2022/04/29 03:30:30;;;;;;;83.13;8.93;;;;;;;6.65;100.00;98943.03;4980276;28;20117;-57
2022/04/29 03:32:57;;;;;;;78.28;9.30;;;;;;;6.35;100.00;98937.28;4982234;28;20034;-56
2022/04/29 03:35:23;;;;;;;89.72;9.80;;;;;;;6.99;100.00;98945.28;4982147;28;20693;-56
2022/04/29 03:37:51;;;;;;;76.50;10.05;;;;;;;5.68;100.00;98935.16;4982498;28;20485;-59
2022/04/29 03:40:24;;;;;;;64.55;8.80;;;;;;;5.36;100.00;98943.97;4979597;28;20065;-58
2022/04/29 03:42:51;;;;;;;66.43;9.32;;;;;;;5.49;100.00;98943.03;4981657;28;20032;-56
2022/04/29 03:45:18;;;;;;;64.43;9.48;;;;;;;5.64;100.00;98944.69;4981439;28;20033;-56
2022/04/29 03:47:43;;;;;;;85.95;9.75;;;;;;;6.00;100.00;98950.53;4982521;28;20034;-56
2022/04/29 03:50:09;;;;;;;82.47;9.10;;;;;;;6.41;100.00;98945.88;4978909;28;20026;-56
2022/04/29 03:52:45;;;;;;;82.03;9.02;;;;;;;6.48;100.00;98942.34;4982382;28;20042;-56
2022/04/29 03:55:11;;;;;;;74.15;8.38;;;;;;;6.36;100.00;98944.19;4981342;28;20026;-56
2022/04/29 03:57:36;;;;;;;88.15;10.20;;;;;;;6.23;100.00;98947.78;4980840;28;20037;-56
2022/04/29 04:00:01;;;;;;;73.43;8.65;;;;;;;6.07;100.00;98951.34;4982285;28;20121;-56
2022/04/29 04:02:28;;;;;;;76.93;9.07;;;;;;;5.60;100.00;98961.94;4978102;28;20034;-56
2022/04/29 04:04:53;;;;;;;111.00;10.70;;;;;;;5.85;100.00;98955.78;4980056;28;20030;-57
2022/04/29 04:07:18;;;;;;;72.82;8.57;;;;;;;5.89;100.00;98952.31;4981132;28;20042;-56
2022/04/29 04:09:44;;;;;;;81.60;9.60;;;;;;;5.84;100.00;98957.50;4979565;28;20038;-55
2022/04/29 04:12:10;;;;;;;76.38;9.23;;;;;;;5.96;100.00;98954.88;4981013;28;20145;-55
2022/04/29 04:14:35;;;;;;;78.63;9.98;;;;;;;5.91;100.00;98950.56;4981609;28;20033;-56
2022/04/29 04:17:01;;;;;;;83.72;9.52;;;;;;;5.58;100.00;98963.69;4983740;28;20042;-54
2022/04/29 04:19:26;;;;;;;72.45;8.73;;;;;;;5.86;100.00;98958.34;4979840;28;20034;-56
2022/04/29 04:21:51;;;;;;;69.68;8.27;;;;;;;5.88;100.00;98967.00;4981183;28;20034;-55
2022/04/29 04:24:17;;;;;;;68.00;8.13;;;;;;;6.58;100.00;98956.97;4981771;28;20140;-55
2022/04/29 04:26:42;;;;;;;88.47;9.90;;;;;;;6.51;100.00;98961.34;4978656;28;20455;-56
2022/04/29 04:29:07;;;;;;;70.28;8.27;;;;;;;6.49;100.00;98959.66;4979768;28;21035;-56
2022/04/29 04:31:33;;;;;;;89.35;10.02;;;;;;;6.07;100.00;98957.38;4982136;28;20069;-55
2022/04/29 04:33:58;;;;;;;79.80;8.35;;;;;;;6.62;100.00;98963.84;4981386;28;20033;-56
2022/04/29 04:36:23;;;;;;;80.78;8.98;;;;;;;6.53;100.00;98956.13;4981114;28;20044;-56
2022/04/29 04:38:49;;;;;;;62.38;8.00;;;;;;;6.92;100.00;98954.00;4981096;28;20048;-54
2022/04/29 04:41:16;;;;;;;92.38;8.98;;;;;;;6.82;100.00;98957.56;4981661;28;20041;-55
2022/04/29 04:43:42;;;;;;;87.28;9.10;;;;;;;6.48;100.00;98957.91;4986368;28;20057;-56
2022/04/29 04:46:08;;;;;;;91.00;9.20;;;;;;;6.98;100.00;98953.94;4983305;28;20042;-56
2022/04/29 04:48:34;;;;;;;95.80;9.05;;;;;;;7.83;100.00;98966.72;4984182;28;20036;-55
2022/04/29 04:51:03;;;;;;;73.72;8.55;;;;;;;7.59;100.00;98967.03;4984299;28;20038;-56
2022/04/29 04:53:29;;;;;;;72.63;8.95;;;;;;;7.77;100.00;98959.00;4983977;28;20022;-56
2022/04/29 04:55:54;;;;;;;64.75;7.47;;;;;;;8.66;100.00;98962.81;4982391;28;20050;-57
2022/04/29 04:58:19;;;;;;;68.30;8.77;;;;;;;8.72;100.00;98966.19;4984298;28;20499;-55
2022/04/29 05:00:45;;;;;;;79.93;8.30;;;;;;;10.09;100.00;98963.31;4986212;28;20636;-56
2022/04/29 05:03:10;;;;;;;85.90;9.60;;;;;;;9.37;100.00;98957.97;4985478;28;20130;-55
2022/04/29 05:05:35;;;;;;;65.40;7.75;;;;;;;10.11;100.00;98949.38;4984349;28;20038;-55
2022/04/29 05:08:00;;;;;;;65.82;8.35;;;;;;;10.19;100.00;98965.69;4985832;28;20117;-56
2022/04/29 05:10:26;;;;;;;86.18;8.70;;;;;;;9.93;100.00;98962.84;4985014;28;20961;-55
2022/04/29 05:12:51;;;;;;;68.60;8.43;;;;;;;10.60;100.00;98961.25;4984726;28;20559;-55
2022/04/29 05:15:17;;;;;;;73.90;8.10;;;;;;;10.85;100.00;98965.81;4983605;28;20400;-56
2022/04/29 05:17:43;;;;;;;55.60;7.55;;;;;;;12.24;100.00;98961.75;4985114;28;20307;-56
2022/04/29 05:20:11;;;;;;;62.65;8.32;;;;;;;12.06;100.00;98958.84;4983007;28;20023;-56
2022/04/29 05:22:37;;;;;;;87.00;9.43;;;;;;;11.26;100.00;98963.81;4983195;28;20085;-55
2022/04/29 05:25:03;;;;;;;71.15;8.57;;;;;;;11.55;100.00;98972.56;4984363;28;20112;-56
2022/04/29 05:27:29;;;;;;;95.13;9.73;;;;;;;10.77;100.00;98975.56;4981669;28;20656;-56
2022/04/29 05:29:54;;;;;;;91.15;9.32;;;;;;;11.63;100.00;98970.56;4983698;28;20033;-56
2022/04/29 05:32:20;;;;;;;59.90;8.10;;;;;;;11.91;100.00;98975.88;4984631;28;20149;-55
2022/04/29 05:34:46;;;;;;;123.22;10.93;;;;;;;12.24;100.00;98966.97;4985266;28;21059;-57
2022/04/29 05:37:12;;;;;;;76.93;8.98;;;;;;;12.30;100.00;98982.50;4982943;28;20042;-56
2022/04/29 05:42:23;;;;;;;70.07;8.65;;;;;;;14.38;95.40;98967.09;4982657;28;20061;-56
2022/04/29 05:44:49;;;;;;;105.15;10.23;;;;;;;13.56;100.00;98970.25;4983520;28;20454;-56
2022/04/29 05:47:15;;;;;;;67.55;8.75;;;;;;;11.99;100.00;98973.00;4988619;28;20037;-55
2022/04/29 05:49:41;;;;;;;75.15;8.98;;;;;;;13.44;100.00;98968.97;4984403;28;20041;-56
2022/04/29 05:52:07;;;;;;;67.43;8.43;;;;;;;13.81;100.00;98966.72;4983432;28;20280;-55
2022/04/29 05:54:33;;;;;;;66.53;8.70;;;;;;;14.05;97.75;98970.16;4982208;28;20029;-55
2022/04/29 05:57:00;;;;;;;92.78;9.40;;;;;;;14.87;93.76;98969.44;4982303;28;20066;-55
2022/04/29 05:59:26;;;;;;;67.40;8.52;;;;;;;14.86;87.84;98962.50;4984272;28;20499;-56
2022/04/29 06:01:51;;;;;;;75.20;8.45;;;;;;;17.39;78.09;98962.63;4983387;28;20042;-56
2022/04/29 06:04:17;;;;;;;74.40;8.50;;;;;;;18.53;68.17;98956.31;4983633;28;20121;-57
2022/04/29 06:06:42;;;;;;;60.53;7.55;;;;;;;18.51;61.80;98963.47;4983372;28;20077;-56
2022/04/29 06:09:08;;;;;;;83.45;9.27;;;;;;;19.81;58.16;98956.53;4984063;28;20113;-56
2022/04/29 06:11:34;;;;;;;69.30;8.48;;;;;;;19.70;57.06;98967.75;4979958;28;20046;-55
2022/04/29 06:13:59;;;;;;;71.53;8.48;;;;;;;19.91;56.96;98956.81;4983590;28;20097;-57
2022/04/29 06:16:25;;;;;;;67.55;8.13;;;;;;;19.62;55.37;98959.47;4981813;28;20444;-55
2022/04/29 06:18:50;;;;;;;63.63;8.18;;;;;;;20.02;54.51;98960.44;4983719;28;20027;-56
2022/04/29 06:21:18;;;;;;;66.07;8.23;;;;;;;19.99;55.69;98959.78;4980417;28;20027;-58
2022/04/29 06:23:43;;;;;;;63.72;8.52;;;;;;;19.16;57.30;98957.88;4986397;28;20037;-55
2022/04/29 06:26:08;;;;;;;76.35;8.90;;;;;;;19.36;58.92;98961.94;4983987;28;20046;-56
2022/04/29 06:28:35;;;;;;;76.85;9.05;;;;;;;20.00;56.53;98954.41;4984455;28;20062;-57
2022/04/29 06:31:00;;;;;;;55.33;7.85;;;;;;;20.93;55.35;98967.69;4985402;28;20542;-56
2022/04/29 06:33:29;;;;;;;66.05;8.52;;;;;;;21.27;52.93;98959.25;4981493;28;20030;-57
2022/04/29 06:35:55;;;;;;;55.25;7.82;;;;;;;20.71;52.48;98963.00;4981846;28;20039;-57
2022/04/29 06:38:21;;;;;;;68.55;8.93;;;;;;;20.38;52.81;98961.66;4980089;28;20030;-57
2022/04/29 06:40:46;;;;;;;65.32;8.35;;;;;;;21.33;50.80;98958.81;4981791;28;20045;-56
2022/04/29 06:43:11;;;;;;;65.53;7.65;;;;;;;22.28;49.14;98956.50;4981618;28;20025;-56
2022/04/29 06:45:37;;;;;;;65.18;8.15;;;;;;;24.87;43.21;98962.69;4982576;28;20039;-56
2022/04/29 06:48:03;;;;;;;50.53;7.82;;;;;;;20.86;46.90;98965.56;4985772;28;20652;-57
2022/04/29 06:50:28;;;;;;;69.13;8.48;;;;;;;22.43;47.20;98962.47;4983670;28;20090;-58
2022/04/29 06:52:53;;;;;;;69.13;8.55;;;;;;;22.02;47.18;98968.97;4983164;28;20029;-57
2022/04/29 06:55:18;;;;;;;60.75;7.63;;;;;;;23.44;44.04;98967.19;4983608;28;20429;-56
2022/04/29 06:57:46;;;;;;;72.75;8.80;;;;;;;25.00;41.34;98968.72;4980513;28;20057;-56
2022/04/29 07:00:12;;;;;;;55.08;7.40;;;;;;;26.35;39.41;98956.81;4983534;28;20026;-55
2022/04/29 07:02:38;;;;;;;76.60;8.30;;;;;;;24.94;39.81;98958.53;4982828;28;20052;-57
2022/04/29 07:05:03;;;;;;;58.45;7.57;;;;;;;25.78;38.24;98959.22;4982267;28;20026;-57
2022/04/29 07:07:29;;;;;;;68.70;8.13;;;;;;;27.07;37.06;98960.03;4980624;28;20424;-57
2022/04/29 07:09:55;;;;;;;56.50;7.63;;;;;;;24.72;38.86;98955.03;4981946;28;20034;-57
2022/04/29 07:12:20;;;;;;;61.53;7.75;;;;;;;25.33;38.75;98954.31;4981749;28;20042;-58
2022/04/29 07:14:46;;;;;;;86.80;8.85;;;;;;;27.00;35.75;98942.88;4981465;28;20033;-56
2022/04/29 07:17:11;;;;;;;53.75;7.03;;;;;;;24.67;39.28;98946.56;4984753;28;20416;-57
2022/04/29 07:19:40;;;;;;;57.28;7.22;;;;;;;27.25;36.77;98951.22;4979572;28;20508;-57
2022/04/29 07:22:05;;;;;;;61.58;7.63;;;;;;;27.68;35.53;98945.31;4983513;28;20046;-57
2022/04/29 07:24:31;;;;;;;71.28;7.95;;;;;;;30.16;31.40;98938.91;4983404;28;20053;-57
2022/04/29 07:26:57;;;;;;;76.85;8.32;;;;;;;27.99;34.04;98941.47;4981708;28;20042;-58
2022/04/29 07:29:22;;;;;;;56.38;6.93;;;;;;;25.72;36.23;98940.25;4982981;28;20030;-58
2022/04/29 07:31:48;;;;;;;52.80;6.90;;;;;;;24.26;38.01;98940.16;4983119;28;20050;-57
2022/04/29 07:34:13;;;;;;;60.42;7.13;;;;;;;27.55;34.50;98933.22;4982476;28;20038;-57
2022/04/29 07:42:07;;;;;;;49.15;6.40;;;;;;;27.15;34.48;98916.47;4981764;28;20130;-57
2022/04/29 07:44:33;;;;;;;59.88;6.97;;;;;;;28.95;32.18;98922.88;4982502;28;20030;-57
2022/04/29 07:46:58;;;;;;;64.05;7.72;;;;;;;31.39;29.17;98915.59;4980225;28;20058;-58
2022/04/29 07:49:24;;;;;;;58.50;7.37;;;;;;;28.99;31.56;98924.25;4982714;28;20064;-57
2022/04/29 07:51:49;;;;;;;53.65;6.95;;;;;;;27.12;34.10;98912.22;4980083;28;20292;-57
2022/04/29 07:54:15;;;;;;;52.55;6.50;;;;;;;28.58;33.26;98915.91;4983346;28;20135;-57
2022/04/29 07:56:40;;;;;;;51.63;6.72;;;;;;;29.48;31.33;98912.97;4981400;28;20517;-57
2022/04/29 07:59:06;;;;;;;48.50;6.50;;;;;;;29.78;30.74;98919.63;4982165;28;20022;-57
2022/04/29 08:01:33;;;;;;;57.70;7.10;;;;;;;29.02;31.80;98913.19;4983022;28;20321;-58
2022/04/29 08:03:59;;;;;;;57.40;6.82;;;;;;;30.13;30.83;98917.69;4980261;28;20050;-58
2022/04/29 08:06:26;;;;;;;58.85;7.32;;;;;;;28.17;31.82;98912.84;4980263;28;20065;-58
2022/04/29 08:08:52;;;;;;;47.85;6.22;;;;;;;31.94;28.59;98909.25;4983188;28;20050;-58
2022/04/29 08:11:18;;;;;;;55.55;6.85;;;;;;;27.86;32.69;98904.28;4980601;28;20038;-57
2022/04/29 08:13:44;;;;;;;61.92;6.65;;;;;;;28.34;33.95;98916.50;4981476;28;20448;-57
2022/04/29 08:16:10;;;;;;;47.50;6.40;;;;;;;27.25;32.52;98908.38;4980456;28;20057;-58
2022/04/29 08:18:35;;;;;;;56.95;7.03;;;;;;;30.29;30.54;98898.03;4982863;28;20038;-57
2022/04/29 08:21:00;;;;;;;53.38;6.55;;;;;;;28.87;31.74;98904.03;4983263;28;20034;-57
2022/04/29 08:23:26;;;;;;;56.92;6.90;;;;;;;29.63;30.77;98899.75;4985545;28;20507;-57
2022/04/29 08:25:51;;;;;;;54.53;6.45;;;;;;;29.34;31.82;98906.34;4985883;28;20030;-57
2022/04/29 08:28:18;;;;;;;42.08;5.90;;;;;;;30.61;30.11;98899.06;4983574;28;20027;-57
2022/04/29 08:30:44;;;;;;;51.55;6.43;;;;;;;30.55;29.84;98895.19;4985482;28;20064;-57
2022/04/29 08:33:13;;;;;;;51.95;6.32;;;;;;;31.33;29.28;98901.78;4982792;28;20573;-58
2022/04/29 08:35:39;;;;;;;53.65;6.65;;;;;;;28.24;32.73;98897.81;4982627;28;20038;-58
2022/04/29 08:38:09;;;;;;;43.60;5.97;;;;;;;30.02;29.67;98888.44;4985351;28;20273;-58
2022/04/29 08:40:35;;;;;;;61.30;7.03;;;;;;;28.68;31.38;98893.50;4983620;28;20035;-58
2022/04/29 08:43:04;;;;;;;51.75;6.50;;;;;;;26.65;33.01;98896.16;4984702;28;20623;-58
2022/04/29 08:45:29;;;;;;;58.67;6.88;;;;;;;28.73;30.37;98885.81;4981742;28;20035;-57
2022/04/29 08:47:55;;;;;;;50.45;6.63;;;;;;;27.72;32.56;98886.88;4985393;28;20041;-57
2022/04/29 08:50:20;;;;;;;40.83;5.75;;;;;;;31.17;27.41;98882.97;4981528;28;20033;-58
2022/04/29 08:52:48;;;;;;;58.70;6.95;;;;;;;29.09;30.03;98881.16;4985087;28;20117;-57
2022/04/29 09:00:44;;;;;;;50.17;5.95;;;;;;;32.70;26.28;98878.84;4984340;28;20126;-57
2022/04/29 09:03:22;;;;;;;49.38;6.38;;;;;;;28.82;28.73;98871.44;4986852;28;20447;-58
2022/04/29 09:05:48;;;;;;;51.17;6.13;;;;;;;30.15;29.03;98872.63;4984271;28;20170;-58
2022/04/29 09:08:19;;;;;;;50.00;6.05;;;;;;;29.84;27.96;98867.03;4985306;28;20697;-57
2022/04/29 09:10:52;;;;;;;50.72;6.38;;;;;;;29.59;27.85;98877.72;4983683;28;20038;-58
2022/04/29 09:13:24;;;;;;;47.22;5.88;;;;;;;29.54;28.12;98865.78;4983537;28;20031;-57
2022/04/29 09:15:54;;;;;;;45.10;6.03;;;;;;;29.75;27.68;98866.19;4985297;28;20565;-58
2022/04/29 09:18:33;;;;;;;58.90;6.68;;;;;;;32.42;26.10;98866.78;4973883;28;20076;-57
2022/04/29 09:21:00;;;;;;;56.45;7.03;;;;;;;29.77;25.39;98863.31;4982805;28;20038;-57
2022/04/29 09:23:29;;;;;;;63.08;6.82;;;;;;;30.60;25.94;98875.00;4984205;28;20045;-57
2022/04/29 09:25:57;;;;;;;51.55;6.13;;;;;;;32.17;24.98;98873.41;4983742;28;20062;-57
2022/04/29 09:28:23;;;;;;;53.63;6.47;;;;;;;29.89;24.91;98871.94;4982745;28;20030;-57
2022/04/29 09:30:55;;;;;;;57.05;6.95;;;;;;;29.72;24.56;98858.44;4984565;28;20146;-57
2022/04/29 09:33:24;;;;;;;48.67;6.25;;;;;;;28.03;30.04;98857.91;4985436;28;20031;-58
2022/04/29 09:35:50;;;;;;;57.63;7.05;;;;;;;30.22;25.20;98850.41;4983094;28;20029;-58
2022/04/29 09:41:01;;;;;;;53.53;5.80;;;;;;;29.34;26.45;98851.75;4979340;28;20052;-57
2022/04/29 09:43:42;;;;;;;47.40;5.78;;;;;;;30.97;25.76;98838.59;4984481;28;20026;-57
2022/04/29 09:46:17;;;;;;;61.60;6.68;;;;;;;29.60;25.36;98840.91;4982089;28;20061;-58
2022/04/29 09:49:08;;;;;;;50.72;6.25;;;;;;;28.38;26.04;98839.22;4985050;28;20026;-59
2022/04/29 09:51:41;;;;;;;56.63;6.07;;;;;;;28.44;26.44;98844.81;4981725;28;20042;-58
2022/04/29 09:54:17;;;;;;;56.55;6.25;;;;;;;27.91;27.15;98844.88;4983135;28;20034;-57
2022/04/29 09:56:45;;;;;;;64.20;6.72;;;;;;;27.79;27.60;98834.38;4982799;28;20045;-57
2022/04/29 09:59:10;;;;;;;60.30;6.55;;;;;;;30.20;25.76;98825.53;4984840;28;20492;-57
2022/04/29 10:01:36;;;;;;;66.85;6.57;;;;;;;28.67;27.29;98827.38;4981141;28;20045;-57
2022/04/29 10:04:01;;;;;;;50.92;6.00;;;;;;;28.06;26.91;98830.75;4984824;28;20120;-58
2022/04/29 10:06:29;;;;;;;64.15;6.95;;;;;;;26.99;28.56;98828.72;4980688;28;20042;-57
2022/04/29 10:08:58;;;;;;;53.65;6.05;;;;;;;27.61;28.14;98831.66;4983713;28;20042;-57
2022/04/29 10:11:26;;;;;;;58.92;6.40;;;;;;;27.44;27.68;98821.75;4984219;28;20038;-57
2022/04/29 10:13:52;;;;;;;52.03;6.15;;;;;;;28.65;28.33;98822.19;4983484;28;20042;-58
2022/04/29 10:16:18;;;;;;;63.65;6.65;;;;;;;26.34;29.02;98818.75;4980835;28;20378;-57
2022/04/29 10:21:39;;;;;;;67.70;6.43;;;;;;;27.67;29.23;98814.97;4982152;28;20129;-58
2022/04/29 10:24:05;;;;;;;56.28;6.28;;;;;;;26.27;29.00;98806.94;4984635;28;20022;-57
2022/04/29 10:26:31;;;;;;;60.35;6.18;;;;;;;27.41;29.26;98804.16;4981859;28;20048;-58
2022/04/29 10:28:57;;;;;;;52.90;6.32;;;;;;;25.29;30.39;98797.16;4984181;28;20049;-58
2022/04/29 10:31:22;;;;;;;54.70;6.05;;;;;;;28.50;28.38;98805.78;4982633;28;20062;-58
2022/04/29 10:33:49;;;;;;;69.30;6.80;;;;;;;28.32;27.49;98803.13;4983593;28;20034;-58
2022/04/29 10:36:14;;;;;;;59.97;6.20;;;;;;;30.07;27.43;98800.00;4982155;28;20420;-57
2022/04/29 10:38:44;;;;;;;64.95;6.38;;;;;;;29.51;27.09;98802.41;4984410;28;20532;-57
2022/04/29 10:41:12;;;;;;;63.97;6.80;;;;;;;27.03;27.57;98795.28;4979969;28;20072;-58
2022/04/29 10:44:08;;;;;;;56.40;5.85;;;;;;;29.19;27.54;98793.28;4984481;28;20488;-57
2022/04/29 10:46:39;;;;;;;44.58;5.45;;;;;;;29.40;26.40;98795.50;4974966;28;20030;-56
2022/04/29 10:49:34;;;;;;;57.88;6.32;;;;;;;27.37;28.77;98789.38;4981986;28;20026;-57
2022/04/29 10:52:02;;;;;;;62.50;6.63;;;;;;;25.70;29.94;98776.56;4978152;28;20042;-57
2022/04/29 10:54:33;;;;;;;60.80;6.45;;;;;;;26.49;29.30;98768.31;4984423;28;20045;-57
2022/04/29 10:57:04;;;;;;;57.47;6.55;;;;;;;25.79;29.31;98773.03;4983453;28;20048;-58
2022/04/29 10:59:52;;;;;;;53.30;5.78;;;;;;;25.46;30.99;98769.78;4979719;28;20105;-57
2022/04/29 11:02:29;;;;;;;46.88;5.68;;;;;;;27.58;28.06;98775.69;4983249;28;20048;-56
2022/04/29 11:04:55;;;;;;;73.28;6.93;;;;;;;27.18;28.62;98776.06;4983058;28;20026;-57
2022/04/29 11:07:44;;;;;;;56.28;6.40;;;;;;;25.27;29.33;98769.75;4981165;28;20112;-57
2022/04/29 11:10:12;;;;;;;72.63;7.25;;;;;;;26.79;28.75;98755.69;4981475;28;20101;-57
2022/04/29 11:12:39;;;;;;;69.70;7.30;;;;;;;27.00;28.24;98755.47;4981367;28;20029;-57
2022/04/29 11:15:09;;;;;;;70.03;7.20;;;;;;;24.75;30.97;98749.34;4983420;28;20085;-56
2022/04/29 11:17:37;;;;;;;53.97;6.07;;;;;;;25.30;31.54;98750.78;4982190;28;20079;-56
2022/04/29 11:20:32;;;;;;;74.90;7.10;;;;;;;25.93;29.32;98759.28;4983231;28;20033;-58
2022/04/29 11:25:59;;;;;;;69.03;6.93;;;;;;;26.01;28.51;98747.00;5001584;28;20037;-57
2022/04/29 11:28:26;;;;;;;85.67;7.87;;;;;;;25.14;29.95;98736.09;5001290;28;20029;-57
2022/04/29 11:31:03;;;;;;;72.93;7.00;;;;;;;25.82;29.69;98735.31;5002989;28;20037;-56
2022/04/29 11:33:28;;;;;;;64.57;6.70;;;;;;;26.04;30.04;98738.72;5000986;28;20026;-57
2022/04/29 11:36:11;;;;;;;61.35;6.63;;;;;;;25.61;30.78;98743.50;4999156;28;20065;-57
2022/04/29 11:38:44;;;;;;;77.43;7.63;;;;;;;24.99;31.73;98748.16;5002639;28;20029;-57
2022/04/29 11:41:17;;;;;;;65.28;6.72;;;;;;;25.03;31.05;98749.56;5003087;28;20053;-58
2022/04/29 11:43:45;;;;;;;56.05;6.45;;;;;;;24.11;32.01;98741.56;4998331;28;20041;-56
2022/04/29 11:46:11;;;;;;;76.15;7.90;;;;;;;24.22;31.87;98744.16;4999980;28;20145;-57